sensor_id;sensor_type;location;lat;lon;timestamp;P1;durP1;ratioP1;P2;durP2;ratioP2
67930;SDS011;63902;52.000;5.954;2023-07-31T00:00:55;1.52;;;1.13;;
67930;SDS011;63902;52.000;5.954;2023-07-31T00:01:56;2.38;;;1.08;;
67930;SDS011;63902;52.000;5.954;2023-07-31T00:02:56;2.40;;;1.13;;
67930;SDS011;63902;52.000;5.954;2023-07-31T00:03:57;2.47;;;1.50;;
67930;SDS011;63902;52.000;5.954;2023-07-31T00:04:58;1.83;;;1.00;;
67930;SDS011;63902;52.000;5.954;2023-07-31T00:05:58;3.03;;;1.23;;
67930;SDS011;63902;52.000;5.954;2023-07-31T00:06:59;1.88;;;1.00;;
67930;SDS011;63902;52.000;5.954;2023-07-31T00:07:59;2.63;;;1.17;;
67930;SDS011;63902;52.000;5.954;2023-07-31T00:09:00;1.67;;;1.10;;
67930;SDS011;63902;52.000;5.954;2023-07-31T00:10:00;1.85;;;0.98;;
67930;SDS011;63902;52.000;5.954;2023-07-31T00:11:01;2.30;;;1.05;;
67930;SDS011;63902;52.000;5.954;2023-07-31T00:12:01;2.97;;;1.35;;
67930;SDS011;63902;52.000;5.954;2023-07-31T00:13:02;2.15;;;1.30;;
67930;SDS011;63902;52.000;5.954;2023-07-31T00:14:04;1.77;;;1.10;;
67930;SDS011;63902;52.000;5.954;2023-07-31T00:15:05;1.60;;;1.10;;
67930;SDS011;63902;52.000;5.954;2023-07-31T00:16:06;2.72;;;1.48;;
67930;SDS011;63902;52.000;5.954;2023-07-31T00:17:08;2.22;;;1.20;;
67930;SDS011;63902;52.000;5.954;2023-07-31T00:18:08;1.65;;;1.10;;
67930;SDS011;63902;52.000;5.954;2023-07-31T00:19:09;2.35;;;1.40;;
67930;SDS011;63902;52.000;5.954;2023-07-31T00:20:09;3.13;;;1.48;;
67930;SDS011;63902;52.000;5.954;2023-07-31T00:21:11;2.22;;;1.33;;
67930;SDS011;63902;52.000;5.954;2023-07-31T00:22:11;2.63;;;1.52;;
67930;SDS011;63902;52.000;5.954;2023-07-31T00:23:12;2.83;;;1.40;;
67930;SDS011;63902;52.000;5.954;2023-07-31T00:24:12;3.35;;;1.42;;
67930;SDS011;63902;52.000;5.954;2023-07-31T00:25:13;3.13;;;1.52;;
67930;SDS011;63902;52.000;5.954;2023-07-31T00:26:13;2.17;;;1.35;;
67930;SDS011;63902;52.000;5.954;2023-07-31T00:27:14;3.60;;;1.67;;
67930;SDS011;63902;52.000;5.954;2023-07-31T00:28:14;3.75;;;1.90;;
67930;SDS011;63902;52.000;5.954;2023-07-31T00:29:16;2.63;;;1.60;;
67930;SDS011;63902;52.000;5.954;2023-07-31T00:30:17;2.63;;;1.60;;
67930;SDS011;63902;52.000;5.954;2023-07-31T00:31:17;3.33;;;1.70;;
67930;SDS011;63902;52.000;5.954;2023-07-31T00:32:18;2.42;;;1.63;;
67930;SDS011;63902;52.000;5.954;2023-07-31T00:33:18;4.20;;;1.63;;
67930;SDS011;63902;52.000;5.954;2023-07-31T00:34:19;2.88;;;1.38;;
67930;SDS011;63902;52.000;5.954;2023-07-31T00:35:19;2.20;;;1.52;;
67930;SDS011;63902;52.000;5.954;2023-07-31T00:36:20;5.03;;;1.48;;
67930;SDS011;63902;52.000;5.954;2023-07-31T00:37:20;2.17;;;1.42;;
67930;SDS011;63902;52.000;5.954;2023-07-31T00:38:21;4.30;;;1.67;;
67930;SDS011;63902;52.000;5.954;2023-07-31T00:39:21;3.08;;;1.77;;
67930;SDS011;63902;52.000;5.954;2023-07-31T00:40:22;3.92;;;1.60;;
67930;SDS011;63902;52.000;5.954;2023-07-31T00:41:22;2.28;;;1.58;;
67930;SDS011;63902;52.000;5.954;2023-07-31T00:42:24;3.45;;;1.58;;
67930;SDS011;63902;52.000;5.954;2023-07-31T00:43:25;2.00;;;1.42;;
67930;SDS011;63902;52.000;5.954;2023-07-31T00:44:27;2.80;;;1.70;;
67930;SDS011;63902;52.000;5.954;2023-07-31T00:45:27;2.53;;;1.85;;
67930;SDS011;63902;52.000;5.954;2023-07-31T00:46:28;3.22;;;1.80;;
67930;SDS011;63902;52.000;5.954;2023-07-31T00:47:28;2.40;;;1.60;;
67930;SDS011;63902;52.000;5.954;2023-07-31T00:48:29;3.55;;;2.00;;
67930;SDS011;63902;52.000;5.954;2023-07-31T00:49:30;6.07;;;2.38;;
67930;SDS011;63902;52.000;5.954;2023-07-31T00:50:31;6.65;;;1.95;;
67930;SDS011;63902;52.000;5.954;2023-07-31T00:51:33;3.90;;;2.10;;
67930;SDS011;63902;52.000;5.954;2023-07-31T00:52:34;4.90;;;2.30;;
67930;SDS011;63902;52.000;5.954;2023-07-31T00:53:35;3.88;;;2.33;;
67930;SDS011;63902;52.000;5.954;2023-07-31T00:54:36;3.50;;;1.98;;
67930;SDS011;63902;52.000;5.954;2023-07-31T00:55:36;4.55;;;2.72;;
67930;SDS011;63902;52.000;5.954;2023-07-31T00:56:37;4.78;;;2.20;;
67930;SDS011;63902;52.000;5.954;2023-07-31T00:57:38;7.18;;;2.50;;
67930;SDS011;63902;52.000;5.954;2023-07-31T00:58:41;6.03;;;2.65;;
67930;SDS011;63902;52.000;5.954;2023-07-31T00:59:43;4.88;;;3.13;;
67930;SDS011;63902;52.000;5.954;2023-07-31T01:00:43;7.07;;;2.55;;
67930;SDS011;63902;52.000;5.954;2023-07-31T01:01:44;5.22;;;2.83;;
67930;SDS011;63902;52.000;5.954;2023-07-31T01:02:46;8.05;;;3.10;;
67930;SDS011;63902;52.000;5.954;2023-07-31T01:03:47;14.32;;;3.83;;
67930;SDS011;63902;52.000;5.954;2023-07-31T01:04:48;11.18;;;3.30;;
67930;SDS011;63902;52.000;5.954;2023-07-31T01:05:50;7.43;;;3.40;;
67930;SDS011;63902;52.000;5.954;2023-07-31T01:07:01;13.65;;;3.63;;
67930;SDS011;63902;52.000;5.954;2023-07-31T01:08:08;18.65;;;4.30;;
67930;SDS011;63902;52.000;5.954;2023-07-31T01:09:17;16.25;;;4.30;;
67930;SDS011;63902;52.000;5.954;2023-07-31T01:10:23;10.43;;;3.60;;
67930;SDS011;63902;52.000;5.954;2023-07-31T01:11:27;18.95;;;3.63;;
67930;SDS011;63902;52.000;5.954;2023-07-31T01:12:29;16.10;;;4.63;;
67930;SDS011;63902;52.000;5.954;2023-07-31T01:13:31;17.92;;;4.93;;
67930;SDS011;63902;52.000;5.954;2023-07-31T01:14:32;16.13;;;4.82;;
67930;SDS011;63902;52.000;5.954;2023-07-31T01:15:34;18.65;;;4.97;;
67930;SDS011;63902;52.000;5.954;2023-07-31T01:16:34;14.35;;;5.38;;
67930;SDS011;63902;52.000;5.954;2023-07-31T01:17:35;19.10;;;5.38;;
67930;SDS011;63902;52.000;5.954;2023-07-31T01:18:35;14.35;;;5.63;;
67930;SDS011;63902;52.000;5.954;2023-07-31T01:19:36;19.00;;;5.55;;
67930;SDS011;63902;52.000;5.954;2023-07-31T01:20:36;22.27;;;6.05;;
67930;SDS011;63902;52.000;5.954;2023-07-31T01:21:41;21.40;;;6.05;;
67930;SDS011;63902;52.000;5.954;2023-07-31T01:23:06;17.00;;;5.65;;
67930;SDS011;63902;52.000;5.954;2023-07-31T01:24:23;24.25;;;5.80;;
67930;SDS011;63902;52.000;5.954;2023-07-31T01:27:02;17.92;;;6.50;;
67930;SDS011;63902;52.000;5.954;2023-07-31T01:28:07;24.58;;;5.70;;
67930;SDS011;63902;52.000;5.954;2023-07-31T01:29:13;25.45;;;7.30;;
67930;SDS011;63902;52.000;5.954;2023-07-31T01:30:24;22.55;;;6.18;;
67930;SDS011;63902;52.000;5.954;2023-07-31T01:31:28;19.52;;;6.75;;
67930;SDS011;63902;52.000;5.954;2023-07-31T01:32:30;23.17;;;6.80;;
67930;SDS011;63902;52.000;5.954;2023-07-31T01:33:31;23.40;;;7.15;;
67930;SDS011;63902;52.000;5.954;2023-07-31T01:34:31;27.98;;;7.50;;
67930;SDS011;63902;52.000;5.954;2023-07-31T01:35:33;24.50;;;6.53;;
67930;SDS011;63902;52.000;5.954;2023-07-31T01:36:34;19.45;;;6.55;;
67930;SDS011;63902;52.000;5.954;2023-07-31T01:37:35;22.13;;;6.93;;
67930;SDS011;63902;52.000;5.954;2023-07-31T01:38:35;23.83;;;5.97;;
67930;SDS011;63902;52.000;5.954;2023-07-31T01:39:36;27.15;;;6.75;;
67930;SDS011;63902;52.000;5.954;2023-07-31T01:40:36;28.13;;;7.43;;
67930;SDS011;63902;52.000;5.954;2023-07-31T01:41:38;19.17;;;6.38;;
67930;SDS011;63902;52.000;5.954;2023-07-31T01:42:38;24.20;;;6.22;;
67930;SDS011;63902;52.000;5.954;2023-07-31T01:43:39;15.57;;;6.18;;
67930;SDS011;63902;52.000;5.954;2023-07-31T01:44:40;21.92;;;6.60;;
67930;SDS011;63902;52.000;5.954;2023-07-31T01:45:40;30.75;;;6.68;;
67930;SDS011;63902;52.000;5.954;2023-07-31T01:46:41;20.05;;;6.15;;
67930;SDS011;63902;52.000;5.954;2023-07-31T01:47:41;22.38;;;6.70;;
67930;SDS011;63902;52.000;5.954;2023-07-31T01:48:42;19.73;;;6.00;;
67930;SDS011;63902;52.000;5.954;2023-07-31T01:49:42;22.73;;;6.40;;
67930;SDS011;63902;52.000;5.954;2023-07-31T01:50:43;24.42;;;6.93;;
67930;SDS011;63902;52.000;5.954;2023-07-31T01:51:43;22.13;;;6.15;;
67930;SDS011;63902;52.000;5.954;2023-07-31T01:52:44;26.20;;;7.00;;
67930;SDS011;63902;52.000;5.954;2023-07-31T01:53:44;17.88;;;6.15;;
67930;SDS011;63902;52.000;5.954;2023-07-31T01:54:45;26.42;;;6.75;;
67930;SDS011;63902;52.000;5.954;2023-07-31T01:55:45;20.23;;;5.95;;
67930;SDS011;63902;52.000;5.954;2023-07-31T01:56:47;32.45;;;6.65;;
67930;SDS011;63902;52.000;5.954;2023-07-31T01:57:48;14.10;;;6.35;;
67930;SDS011;63902;52.000;5.954;2023-07-31T01:58:48;18.02;;;6.88;;
67930;SDS011;63902;52.000;5.954;2023-07-31T01:59:49;20.30;;;5.88;;
67930;SDS011;63902;52.000;5.954;2023-07-31T02:00:49;23.52;;;6.28;;
67930;SDS011;63902;52.000;5.954;2023-07-31T02:01:50;21.45;;;6.43;;
67930;SDS011;63902;52.000;5.954;2023-07-31T02:02:50;14.30;;;5.63;;
67930;SDS011;63902;52.000;5.954;2023-07-31T02:03:51;21.17;;;6.47;;
67930;SDS011;63902;52.000;5.954;2023-07-31T02:04:51;26.98;;;6.18;;
67930;SDS011;63902;52.000;5.954;2023-07-31T02:05:53;14.55;;;6.20;;
67930;SDS011;63902;52.000;5.954;2023-07-31T02:06:54;27.60;;;6.57;;
67930;SDS011;63902;52.000;5.954;2023-07-31T02:07:55;17.45;;;5.78;;
67930;SDS011;63902;52.000;5.954;2023-07-31T02:08:55;12.73;;;5.30;;
67930;SDS011;63902;52.000;5.954;2023-07-31T02:09:56;16.92;;;5.82;;
67930;SDS011;63902;52.000;5.954;2023-07-31T02:10:56;16.05;;;5.60;;
67930;SDS011;63902;52.000;5.954;2023-07-31T02:11:58;19.35;;;5.80;;
67930;SDS011;63902;52.000;5.954;2023-07-31T02:12:59;20.55;;;6.35;;
67930;SDS011;63902;52.000;5.954;2023-07-31T02:13:59;12.77;;;5.43;;
67930;SDS011;63902;52.000;5.954;2023-07-31T02:15:00;19.80;;;6.07;;
67930;SDS011;63902;52.000;5.954;2023-07-31T02:16:00;24.83;;;6.45;;
67930;SDS011;63902;52.000;5.954;2023-07-31T02:17:01;13.00;;;4.97;;
67930;SDS011;63902;52.000;5.954;2023-07-31T02:18:01;13.18;;;5.57;;
67930;SDS011;63902;52.000;5.954;2023-07-31T02:19:02;20.58;;;5.60;;
67930;SDS011;63902;52.000;5.954;2023-07-31T02:20:03;15.07;;;5.40;;
67930;SDS011;63902;52.000;5.954;2023-07-31T02:21:04;18.40;;;5.53;;
67930;SDS011;63902;52.000;5.954;2023-07-31T02:22:04;21.85;;;6.07;;
67930;SDS011;63902;52.000;5.954;2023-07-31T02:23:05;14.52;;;5.47;;
67930;SDS011;63902;52.000;5.954;2023-07-31T02:24:05;17.48;;;5.63;;
67930;SDS011;63902;52.000;5.954;2023-07-31T02:25:06;17.98;;;5.32;;
67930;SDS011;63902;52.000;5.954;2023-07-31T02:26:07;19.83;;;6.20;;
67930;SDS011;63902;52.000;5.954;2023-07-31T02:27:09;25.65;;;6.28;;
67930;SDS011;63902;52.000;5.954;2023-07-31T02:28:09;13.73;;;5.50;;
67930;SDS011;63902;52.000;5.954;2023-07-31T02:29:10;18.38;;;5.70;;
67930;SDS011;63902;52.000;5.954;2023-07-31T02:30:11;17.48;;;5.22;;
67930;SDS011;63902;52.000;5.954;2023-07-31T02:31:11;19.83;;;5.65;;
67930;SDS011;63902;52.000;5.954;2023-07-31T02:32:12;19.83;;;6.60;;
67930;SDS011;63902;52.000;5.954;2023-07-31T02:33:13;18.45;;;5.45;;
67930;SDS011;63902;52.000;5.954;2023-07-31T02:34:14;15.18;;;5.70;;
67930;SDS011;63902;52.000;5.954;2023-07-31T02:35:14;14.45;;;5.55;;
67930;SDS011;63902;52.000;5.954;2023-07-31T02:36:15;14.07;;;4.47;;
67930;SDS011;63902;52.000;5.954;2023-07-31T02:37:16;19.10;;;5.07;;
67930;SDS011;63902;52.000;5.954;2023-07-31T02:38:16;15.23;;;4.85;;
67930;SDS011;63902;52.000;5.954;2023-07-31T02:39:17;17.80;;;5.22;;
67930;SDS011;63902;52.000;5.954;2023-07-31T02:40:17;16.00;;;5.68;;
67930;SDS011;63902;52.000;5.954;2023-07-31T02:41:18;14.15;;;5.32;;
67930;SDS011;63902;52.000;5.954;2023-07-31T02:42:20;12.95;;;5.10;;
67930;SDS011;63902;52.000;5.954;2023-07-31T02:43:21;12.40;;;5.10;;
67930;SDS011;63902;52.000;5.954;2023-07-31T02:44:21;16.52;;;5.07;;
67930;SDS011;63902;52.000;5.954;2023-07-31T02:45:22;15.55;;;4.75;;
67930;SDS011;63902;52.000;5.954;2023-07-31T02:46:22;17.20;;;5.45;;
67930;SDS011;63902;52.000;5.954;2023-07-31T02:47:23;13.00;;;4.38;;
67930;SDS011;63902;52.000;5.954;2023-07-31T02:48:23;10.18;;;4.35;;
67930;SDS011;63902;52.000;5.954;2023-07-31T02:49:24;13.68;;;4.75;;
67930;SDS011;63902;52.000;5.954;2023-07-31T02:50:24;10.88;;;4.40;;
67930;SDS011;63902;52.000;5.954;2023-07-31T02:51:25;14.88;;;4.07;;
67930;SDS011;63902;52.000;5.954;2023-07-31T02:52:25;12.25;;;4.60;;
67930;SDS011;63902;52.000;5.954;2023-07-31T02:53:26;13.32;;;5.10;;
67930;SDS011;63902;52.000;5.954;2023-07-31T02:54:26;13.50;;;4.70;;
67930;SDS011;63902;52.000;5.954;2023-07-31T02:55:27;16.95;;;4.55;;
67930;SDS011;63902;52.000;5.954;2023-07-31T02:56:28;22.45;;;5.68;;
67930;SDS011;63902;52.000;5.954;2023-07-31T02:57:29;15.02;;;5.18;;
67930;SDS011;63902;52.000;5.954;2023-07-31T02:58:30;21.08;;;5.20;;
67930;SDS011;63902;52.000;5.954;2023-07-31T02:59:30;13.60;;;5.47;;
67930;SDS011;63902;52.000;5.954;2023-07-31T03:00:31;17.98;;;4.80;;
67930;SDS011;63902;52.000;5.954;2023-07-31T03:01:31;15.07;;;4.45;;
67930;SDS011;63902;52.000;5.954;2023-07-31T03:02:32;16.35;;;5.57;;
67930;SDS011;63902;52.000;5.954;2023-07-31T03:03:33;21.63;;;4.47;;
67930;SDS011;63902;52.000;5.954;2023-07-31T03:04:33;16.42;;;5.50;;
67930;SDS011;63902;52.000;5.954;2023-07-31T03:05:34;19.52;;;6.13;;
67930;SDS011;63902;52.000;5.954;2023-07-31T03:06:34;19.85;;;5.00;;
67930;SDS011;63902;52.000;5.954;2023-07-31T03:07:35;17.33;;;5.15;;
67930;SDS011;63902;52.000;5.954;2023-07-31T03:08:35;16.02;;;4.95;;
67930;SDS011;63902;52.000;5.954;2023-07-31T03:09:36;17.50;;;4.53;;
67930;SDS011;63902;52.000;5.954;2023-07-31T03:10:36;20.15;;;4.93;;
67930;SDS011;63902;52.000;5.954;2023-07-31T03:11:37;15.25;;;5.32;;
67930;SDS011;63902;52.000;5.954;2023-07-31T03:12:39;19.52;;;5.18;;
67930;SDS011;63902;52.000;5.954;2023-07-31T03:13:40;14.07;;;4.85;;
67930;SDS011;63902;52.000;5.954;2023-07-31T03:14:40;17.38;;;5.38;;
67930;SDS011;63902;52.000;5.954;2023-07-31T03:15:41;15.82;;;5.05;;
67930;SDS011;63902;52.000;5.954;2023-07-31T03:16:42;17.50;;;5.47;;
67930;SDS011;63902;52.000;5.954;2023-07-31T03:17:42;20.00;;;5.80;;
67930;SDS011;63902;52.000;5.954;2023-07-31T03:18:43;17.02;;;5.30;;
67930;SDS011;63902;52.000;5.954;2023-07-31T03:19:44;29.98;;;5.05;;
67930;SDS011;63902;52.000;5.954;2023-07-31T03:20:44;16.02;;;5.50;;
67930;SDS011;63902;52.000;5.954;2023-07-31T03:21:45;19.02;;;5.50;;
67930;SDS011;63902;52.000;5.954;2023-07-31T03:22:45;22.25;;;4.72;;
67930;SDS011;63902;52.000;5.954;2023-07-31T03:23:46;17.38;;;5.60;;
67930;SDS011;63902;52.000;5.954;2023-07-31T03:24:46;25.45;;;5.70;;
67930;SDS011;63902;52.000;5.954;2023-07-31T03:25:56;23.98;;;5.20;;
67930;SDS011;63902;52.000;5.954;2023-07-31T03:26:57;16.98;;;5.45;;
67930;SDS011;63902;52.000;5.954;2023-07-31T03:27:58;24.00;;;6.07;;
67930;SDS011;63902;52.000;5.954;2023-07-31T03:28:59;14.05;;;4.57;;
67930;SDS011;63902;52.000;5.954;2023-07-31T03:29:59;17.65;;;5.25;;
67930;SDS011;63902;52.000;5.954;2023-07-31T03:31:00;16.52;;;5.10;;
67930;SDS011;63902;52.000;5.954;2023-07-31T03:32:00;19.83;;;5.80;;
67930;SDS011;63902;52.000;5.954;2023-07-31T03:33:01;19.48;;;5.03;;
67930;SDS011;63902;52.000;5.954;2023-07-31T03:34:02;19.83;;;6.25;;
67930;SDS011;63902;52.000;5.954;2023-07-31T03:35:03;13.98;;;5.03;;
67930;SDS011;63902;52.000;5.954;2023-07-31T03:36:04;25.48;;;6.00;;
67930;SDS011;63902;52.000;5.954;2023-07-31T03:37:05;23.23;;;5.47;;
67930;SDS011;63902;52.000;5.954;2023-07-31T03:38:05;16.15;;;5.13;;
67930;SDS011;63902;52.000;5.954;2023-07-31T03:39:06;18.42;;;5.95;;
67930;SDS011;63902;52.000;5.954;2023-07-31T03:40:07;20.38;;;5.25;;
67930;SDS011;63902;52.000;5.954;2023-07-31T03:41:08;13.45;;;5.05;;
67930;SDS011;63902;52.000;5.954;2023-07-31T03:42:08;18.77;;;5.20;;
67930;SDS011;63902;52.000;5.954;2023-07-31T03:43:10;18.50;;;5.20;;
67930;SDS011;63902;52.000;5.954;2023-07-31T03:44:11;13.75;;;5.43;;
67930;SDS011;63902;52.000;5.954;2023-07-31T03:45:12;24.00;;;5.10;;
67930;SDS011;63902;52.000;5.954;2023-07-31T03:46:12;21.63;;;4.85;;
67930;SDS011;63902;52.000;5.954;2023-07-31T03:47:13;13.60;;;4.50;;
67930;SDS011;63902;52.000;5.954;2023-07-31T03:48:13;16.02;;;4.35;;
67930;SDS011;63902;52.000;5.954;2023-07-31T03:49:15;19.30;;;4.90;;
67930;SDS011;63902;52.000;5.954;2023-07-31T03:50:16;14.93;;;4.65;;
67930;SDS011;63902;52.000;5.954;2023-07-31T03:51:16;19.55;;;4.95;;
67930;SDS011;63902;52.000;5.954;2023-07-31T03:52:17;17.67;;;5.30;;
67930;SDS011;63902;52.000;5.954;2023-07-31T03:53:18;16.98;;;5.15;;
67930;SDS011;63902;52.000;5.954;2023-07-31T03:54:18;16.75;;;4.60;;
67930;SDS011;63902;52.000;5.954;2023-07-31T03:55:19;13.55;;;4.50;;
67930;SDS011;63902;52.000;5.954;2023-07-31T03:56:19;10.82;;;4.35;;
67930;SDS011;63902;52.000;5.954;2023-07-31T03:57:20;14.93;;;4.68;;
67930;SDS011;63902;52.000;5.954;2023-07-31T03:58:22;12.88;;;4.82;;
67930;SDS011;63902;52.000;5.954;2023-07-31T03:59:22;23.15;;;5.97;;
67930;SDS011;63902;52.000;5.954;2023-07-31T04:00:23;21.45;;;5.68;;
67930;SDS011;63902;52.000;5.954;2023-07-31T04:01:23;17.52;;;5.00;;
67930;SDS011;63902;52.000;5.954;2023-07-31T04:02:24;20.60;;;5.10;;
67930;SDS011;63902;52.000;5.954;2023-07-31T04:03:24;22.52;;;5.38;;
67930;SDS011;63902;52.000;5.954;2023-07-31T04:04:25;19.08;;;5.45;;
67930;SDS011;63902;52.000;5.954;2023-07-31T04:05:25;25.17;;;4.70;;
67930;SDS011;63902;52.000;5.954;2023-07-31T04:06:26;21.08;;;5.38;;
67930;SDS011;63902;52.000;5.954;2023-07-31T04:07:27;20.50;;;5.05;;
67930;SDS011;63902;52.000;5.954;2023-07-31T04:08:27;22.67;;;5.47;;
67930;SDS011;63902;52.000;5.954;2023-07-31T04:09:27;19.42;;;5.18;;
67930;SDS011;63902;52.000;5.954;2023-07-31T04:10:28;19.05;;;4.93;;
67930;SDS011;63902;52.000;5.954;2023-07-31T04:11:29;12.98;;;4.30;;
67930;SDS011;63902;52.000;5.954;2023-07-31T04:12:29;17.95;;;4.90;;
67930;SDS011;63902;52.000;5.954;2023-07-31T04:13:31;19.45;;;5.15;;
67930;SDS011;63902;52.000;5.954;2023-07-31T04:14:32;21.25;;;5.40;;
67930;SDS011;63902;52.000;5.954;2023-07-31T04:15:32;16.48;;;4.82;;
67930;SDS011;63902;52.000;5.954;2023-07-31T04:16:33;20.90;;;4.80;;
67930;SDS011;63902;52.000;5.954;2023-07-31T04:17:33;18.17;;;5.10;;
67930;SDS011;63902;52.000;5.954;2023-07-31T04:18:34;14.88;;;5.00;;
67930;SDS011;63902;52.000;5.954;2023-07-31T04:19:34;16.45;;;4.60;;
67930;SDS011;63902;52.000;5.954;2023-07-31T04:20:35;19.02;;;4.82;;
67930;SDS011;63902;52.000;5.954;2023-07-31T04:21:35;21.00;;;5.53;;
67930;SDS011;63902;52.000;5.954;2023-07-31T04:22:36;18.98;;;4.57;;
67930;SDS011;63902;52.000;5.954;2023-07-31T04:23:36;14.73;;;4.60;;
67930;SDS011;63902;52.000;5.954;2023-07-31T04:24:37;16.90;;;4.45;;
67930;SDS011;63902;52.000;5.954;2023-07-31T04:25:37;16.08;;;4.88;;
67930;SDS011;63902;52.000;5.954;2023-07-31T04:26:38;18.35;;;4.90;;
67930;SDS011;63902;52.000;5.954;2023-07-31T04:27:39;17.45;;;4.72;;
67930;SDS011;63902;52.000;5.954;2023-07-31T04:28:41;20.08;;;4.82;;
67930;SDS011;63902;52.000;5.954;2023-07-31T04:29:41;12.80;;;5.07;;
67930;SDS011;63902;52.000;5.954;2023-07-31T04:30:42;20.45;;;6.10;;
67930;SDS011;63902;52.000;5.954;2023-07-31T04:31:42;15.85;;;5.43;;
67930;SDS011;63902;52.000;5.954;2023-07-31T04:32:43;18.70;;;4.82;;
67930;SDS011;63902;52.000;5.954;2023-07-31T04:33:44;15.45;;;4.35;;
67930;SDS011;63902;52.000;5.954;2023-07-31T04:34:44;18.05;;;4.68;;
67930;SDS011;63902;52.000;5.954;2023-07-31T04:35:48;16.08;;;5.07;;
67930;SDS011;63902;52.000;5.954;2023-07-31T04:36:50;24.17;;;4.43;;
67930;SDS011;63902;52.000;5.954;2023-07-31T04:37:50;10.55;;;3.92;;
67930;SDS011;63902;52.000;5.954;2023-07-31T04:38:51;11.65;;;4.45;;
67930;SDS011;63902;52.000;5.954;2023-07-31T04:39:51;16.92;;;4.80;;
67930;SDS011;63902;52.000;5.954;2023-07-31T04:40:52;17.83;;;4.35;;
67930;SDS011;63902;52.000;5.954;2023-07-31T04:41:52;19.92;;;5.22;;
67930;SDS011;63902;52.000;5.954;2023-07-31T04:42:53;17.17;;;4.75;;
67930;SDS011;63902;52.000;5.954;2023-07-31T04:43:55;18.73;;;4.90;;
67930;SDS011;63902;52.000;5.954;2023-07-31T04:44:55;13.27;;;3.85;;
67930;SDS011;63902;52.000;5.954;2023-07-31T04:45:56;11.60;;;4.35;;
67930;SDS011;63902;52.000;5.954;2023-07-31T04:46:56;17.02;;;4.93;;
67930;SDS011;63902;52.000;5.954;2023-07-31T04:47:57;10.60;;;4.30;;
67930;SDS011;63902;52.000;5.954;2023-07-31T04:48:57;17.48;;;4.50;;
67930;SDS011;63902;52.000;5.954;2023-07-31T04:49:58;18.77;;;5.35;;
67930;SDS011;63902;52.000;5.954;2023-07-31T04:50:59;18.63;;;4.63;;
67930;SDS011;63902;52.000;5.954;2023-07-31T04:51:59;16.60;;;4.80;;
67930;SDS011;63902;52.000;5.954;2023-07-31T04:53:00;17.10;;;4.55;;
67930;SDS011;63902;52.000;5.954;2023-07-31T04:54:00;13.50;;;4.55;;
67930;SDS011;63902;52.000;5.954;2023-07-31T04:55:01;18.65;;;6.00;;
67930;SDS011;63902;52.000;5.954;2023-07-31T04:56:01;22.05;;;5.60;;
67930;SDS011;63902;52.000;5.954;2023-07-31T04:57:02;23.63;;;5.03;;
67930;SDS011;63902;52.000;5.954;2023-07-31T04:58:03;13.25;;;4.47;;
67930;SDS011;63902;52.000;5.954;2023-07-31T04:59:05;13.63;;;4.57;;
67930;SDS011;63902;52.000;5.954;2023-07-31T05:00:06;16.85;;;5.10;;
67930;SDS011;63902;52.000;5.954;2023-07-31T05:01:07;10.63;;;3.65;;
67930;SDS011;63902;52.000;5.954;2023-07-31T05:02:08;17.40;;;4.38;;
67930;SDS011;63902;52.000;5.954;2023-07-31T05:03:09;13.20;;;4.43;;
67930;SDS011;63902;52.000;5.954;2023-07-31T05:04:09;19.27;;;5.30;;
67930;SDS011;63902;52.000;5.954;2023-07-31T05:05:10;16.58;;;4.10;;
67930;SDS011;63902;52.000;5.954;2023-07-31T05:06:10;18.02;;;4.15;;
67930;SDS011;63902;52.000;5.954;2023-07-31T05:07:11;18.00;;;5.70;;
67930;SDS011;63902;52.000;5.954;2023-07-31T05:08:11;22.10;;;4.82;;
67930;SDS011;63902;52.000;5.954;2023-07-31T05:09:12;14.95;;;4.78;;
67930;SDS011;63902;52.000;5.954;2023-07-31T05:10:12;16.08;;;4.28;;
67930;SDS011;63902;52.000;5.954;2023-07-31T05:11:13;15.50;;;4.50;;
67930;SDS011;63902;52.000;5.954;2023-07-31T05:12:13;14.77;;;4.63;;
67930;SDS011;63902;52.000;5.954;2023-07-31T05:13:14;18.55;;;4.90;;
67930;SDS011;63902;52.000;5.954;2023-07-31T05:14:16;17.08;;;5.10;;
67930;SDS011;63902;52.000;5.954;2023-07-31T05:15:16;16.90;;;5.00;;
67930;SDS011;63902;52.000;5.954;2023-07-31T05:16:17;10.45;;;3.95;;
67930;SDS011;63902;52.000;5.954;2023-07-31T05:17:17;15.43;;;5.10;;
67930;SDS011;63902;52.000;5.954;2023-07-31T05:18:18;18.20;;;4.57;;
67930;SDS011;63902;52.000;5.954;2023-07-31T05:19:18;12.82;;;4.85;;
67930;SDS011;63902;52.000;5.954;2023-07-31T05:20:19;15.45;;;4.50;;
67930;SDS011;63902;52.000;5.954;2023-07-31T05:21:20;11.13;;;4.10;;
67930;SDS011;63902;52.000;5.954;2023-07-31T05:22:20;16.05;;;4.45;;
67930;SDS011;63902;52.000;5.954;2023-07-31T05:23:21;11.45;;;4.40;;
67930;SDS011;63902;52.000;5.954;2023-07-31T05:24:21;23.70;;;4.60;;
67930;SDS011;63902;52.000;5.954;2023-07-31T05:25:22;12.07;;;4.10;;
67930;SDS011;63902;52.000;5.954;2023-07-31T05:26:22;11.32;;;4.30;;
67930;SDS011;63902;52.000;5.954;2023-07-31T05:27:23;14.35;;;4.97;;
67930;SDS011;63902;52.000;5.954;2023-07-31T05:28:24;14.38;;;4.45;;
67930;SDS011;63902;52.000;5.954;2023-07-31T05:29:25;13.00;;;4.65;;
67930;SDS011;63902;52.000;5.954;2023-07-31T05:30:26;12.73;;;3.67;;
67930;SDS011;63902;52.000;5.954;2023-07-31T05:31:26;15.63;;;4.32;;
67930;SDS011;63902;52.000;5.954;2023-07-31T05:32:27;14.43;;;4.35;;
67930;SDS011;63902;52.000;5.954;2023-07-31T05:33:27;18.10;;;5.00;;
67930;SDS011;63902;52.000;5.954;2023-07-31T05:34:28;11.25;;;3.75;;
67930;SDS011;63902;52.000;5.954;2023-07-31T05:35:29;8.75;;;3.42;;
67930;SDS011;63902;52.000;5.954;2023-07-31T05:36:29;13.52;;;4.80;;
67930;SDS011;63902;52.000;5.954;2023-07-31T05:37:30;14.95;;;4.35;;
67930;SDS011;63902;52.000;5.954;2023-07-31T05:38:30;15.43;;;3.95;;
67930;SDS011;63902;52.000;5.954;2023-07-31T05:39:31;12.13;;;4.25;;
67930;SDS011;63902;52.000;5.954;2023-07-31T05:40:32;11.43;;;4.25;;
67930;SDS011;63902;52.000;5.954;2023-07-31T05:41:32;15.52;;;4.43;;
67930;SDS011;63902;52.000;5.954;2023-07-31T05:42:33;13.10;;;4.35;;
67930;SDS011;63902;52.000;5.954;2023-07-31T05:43:33;11.10;;;4.25;;
67930;SDS011;63902;52.000;5.954;2023-07-31T05:44:35;13.77;;;3.90;;
67930;SDS011;63902;52.000;5.954;2023-07-31T05:45:36;12.25;;;3.60;;
67930;SDS011;63902;52.000;5.954;2023-07-31T05:46:36;18.95;;;4.80;;
67930;SDS011;63902;52.000;5.954;2023-07-31T05:47:37;11.48;;;4.18;;
67930;SDS011;63902;52.000;5.954;2023-07-31T05:48:37;12.43;;;4.50;;
67930;SDS011;63902;52.000;5.954;2023-07-31T05:49:38;13.50;;;4.05;;
67930;SDS011;63902;52.000;5.954;2023-07-31T05:50:38;10.13;;;4.10;;
67930;SDS011;63902;52.000;5.954;2023-07-31T05:51:39;15.05;;;4.53;;
67930;SDS011;63902;52.000;5.954;2023-07-31T05:52:39;8.52;;;3.95;;
67930;SDS011;63902;52.000;5.954;2023-07-31T05:53:40;10.73;;;4.00;;
67930;SDS011;63902;52.000;5.954;2023-07-31T05:54:41;11.13;;;4.22;;
67930;SDS011;63902;52.000;5.954;2023-07-31T05:55:42;17.33;;;4.35;;
67930;SDS011;63902;52.000;5.954;2023-07-31T05:56:42;10.55;;;4.20;;
67930;SDS011;63902;52.000;5.954;2023-07-31T05:57:43;14.43;;;4.43;;
67930;SDS011;63902;52.000;5.954;2023-07-31T05:58:43;14.32;;;3.90;;
67930;SDS011;63902;52.000;5.954;2023-07-31T05:59:45;11.18;;;4.38;;
67930;SDS011;63902;52.000;5.954;2023-07-31T06:00:46;13.20;;;3.97;;
67930;SDS011;63902;52.000;5.954;2023-07-31T06:01:46;9.50;;;3.70;;
67930;SDS011;63902;52.000;5.954;2023-07-31T06:02:47;14.40;;;4.90;;
67930;SDS011;63902;52.000;5.954;2023-07-31T06:03:47;18.50;;;4.15;;
67930;SDS011;63902;52.000;5.954;2023-07-31T06:04:48;15.65;;;4.15;;